Historique des mesures à Cassis (13260), France
Quotidien Résumé Octobre 13, 2018 Unités:  US    Métrique   Métrique/US
« Précédent (Jour)
Suivant (Jour) »
Quotidien Hebdomadaire Mensuel Annuel Période au choix
  Maximum: Minimum: Moyenne:
Température: 32 °F 61.3 °F 66 °F
Point de rosée: 32 °F 50.5 °F 56.5 °F
Humidité: Humidity % 56 % 68 %
Vitesse du vent: WindSpeedKMH mph 0.0 mph 2.1 mph
Rafales: WindSpeedGustKMH mph - -
Vent:- - South
Pression: 0 in 30 in -
Précipitations: 0 in    
Historical Graphs
 
 
Mesures pour : Octobre 13, 2018
Heure Temperature Point de rosée Pression Vent Vitesse du vent Rafales Humidité Pluie (par heure) Conditions
32 °F 32 °F 0 in Calm     Humidity % 0 in SoftwareType W/m2
00:10 64 °F 57.4 °F 30.1 in Calm     79 % 0 in open2300-1.11 W/m2
01:10 63.1 °F 56.8 °F 30.1 in WNW 4.0 mph 4.0 mph 80 % 0 in open2300-1.11 W/m2
02:10 63.7 °F 56.3 °F 30.1 in NW 2.5 mph 2.5 mph 77 % 0 in open2300-1.11 W/m2
03:10 63.1 °F 55.8 °F 30.1 in NNW 1.4 mph 1.4 mph 77 % 0 in open2300-1.11 W/m2
04:10 61.9 °F 54.5 °F 30.1 in Calm   5.8 mph 77 % 0 in open2300-1.11 W/m2
05:10 61.3 °F 54.5 °F 30.1 in NW 2.5 mph 3.2 mph 78 % 0 in open2300-1.11 W/m2
06:10 61.3 °F 54.5 °F 30.1 in Calm     78 % 0 in open2300-1.11 W/m2
07:10 62.2 °F 55.2 °F 30.1 in Calm     78 % 0 in open2300-1.11 W/m2
08:10 61.9 °F 55.2 °F 30.1 in Calm     79 % 0 in open2300-1.11 W/m2
09:10 64.8 °F 57.7 °F 30.1 in Calm     78 % 0 in open2300-1.11 W/m2
10:10 67.6 °F 58.3 °F 30.1 in Calm   7.2 mph 72 % 0 in open2300-1.11 W/m2
11:10 70 °F 60.1 °F 30.1 in SSE 10.1 mph 10.1 mph 71 % 0 in open2300-1.11 W/m2
12:10 72.3 °F 61.7 °F 30.1 in Calm     69 % 0 in open2300-1.11 W/m2
13:10 73.9 °F 62.2 °F 30.1 in SE 5.4 mph 5.4 mph 67 % 0 in open2300-1.11 W/m2
14:10 74.3 °F 63.1 °F 30 in North 3.2 mph 3.6 mph 68 % 0 in open2300-1.11 W/m2
15:10 73.9 °F 63.7 °F 30 in NNW 2.2 mph 2.5 mph 70 % 0 in open2300-1.11 W/m2
16:10 74.1 °F 63.3 °F 30 in Calm   3.2 mph 69 % 0 in open2300-1.11 W/m2
17:10 73.8 °F 59.4 °F 30 in ESE 6.5 mph 7.6 mph 61 % 0 in open2300-1.11 W/m2
18:10 72.7 °F 59.4 °F 30 in SSE 1.4 mph 1.4 mph 63 % 0 in open2300-1.11 W/m2
19:10 70.2 °F 57.4 °F 30 in East 4.3 mph 4.3 mph 64 % 0 in open2300-1.11 W/m2
20:10 68.5 °F 55.4 °F 30 in ESE 1.4 mph 5.0 mph 63 % 0 in open2300-1.11 W/m2
21:10 66.9 °F 53.4 °F 30 in Calm   2.2 mph 62 % 0 in open2300-1.11 W/m2
22:10 67.1 °F 52.9 °F 30 in ESE 4.0 mph 4.0 mph 60 % 0 in open2300-1.11 W/m2
23:10 66.7 °F 50.5 °F 30 in ESE 2.5 mph 5.0 mph 56 % 0 in open2300-1.11 W/m2
Observations météo à CASSIS
WU-History script by Weather Underground - 1 mb